Area
區域
MosquitoTrap
捕蚊器
DateTime
日期時間
Type
種類
Temperature
溫度
Humidity
濕度
CO2
二氧化碳
Address
住址
GPS
座標
臺南 NHRI-IBEN-0016 2019-06-20 15:45:18 家蚊 30.4 43.4 1744.81 702台南市南區大同路二段752號 (120.22, 22.965207)
臺南 NHRI-IBEN-0017 2019-06-20 15:44:22 班蚊 28.8 53.9 496.06 702台南市南區大同路二段752號 (120.22, 24.70526)
臺南 NHRI-IBEN-0016 2019-06-20 15:44:16 家蚊 30.4 43.3 1744.81 702台南市南區大同路二段752號 (120.22, 22.965207)
臺南 NHRI-IBEN-0016 2019-06-20 15:43:42 家蚊 30.6 46.7 1744.81 702台南市南區大同路二段752號 (120.22, 22.965207)
臺南 NHRI-IBEN-0012 2019-06-20 15:40:56 班蚊 30.2 48.4 911.22 702台南市南區大同路二段752號 (24.70526, 120.22)
臺南 NHRI-IBEN-0016 2019-06-20 15:39:26 家蚊 30.7 47.2 1744.81 702台南市南區大同路二段752號 (120.22, 22.965207)
臺南 NHRI-IBEN-0016 2019-06-20 15:38:39 班蚊 30.8 50.8 1744.81 702台南市南區大同路二段752號 (120.22, 22.965207)
臺南 NHRI-IBEN-0012 2019-06-20 15:38:34 班蚊 30.2 48.9 936.58 702台南市南區大同路二段752號 (24.70526, 120.22)
臺南 NHRI-IBEN-0012 2019-06-20 15:37:59 班蚊 30.2 50.3 948.52 702台南市南區大同路二段752號 (24.70526, 120.22)
臺南 NHRI-IBEN-0013 2019-06-20 15:37:18 班蚊 30.8 56.9 1157.57 702台南市南區大同路二段752號 (120.22, 22.965207)
臺南 NHRI-IBEN-0013 2019-06-20 15:37:07 家蚊 30.7 58.5 1155.94 702台南市南區大同路二段752號 (120.22, 22.965207)
臺南 NHRI-IBEN-0012 2019-06-20 15:36:39 班蚊 30.3 51.6 942.53 702台南市南區大同路二段752號 (24.70526, 120.22)
臺南 NHRI-IBEN-0013 2019-06-20 15:35:47 班蚊 30.3 63.9 1193.14 702台南市南區大同路二段752號 (120.22, 22.965207)
臺南 NHRI-IBEN-0012 2019-06-20 15:35:14 班蚊 30.3 52.5 968.76 702台南市南區大同路二段752號 (24.70526, 120.22)
臺南 NHRI-IBEN-0016 2019-06-20 15:35:00 班蚊 30.7 53.2 1743.58 702台南市南區大同路二段752號 (120.22, 22.965207)
臺南 NHRI-IBEN-0012 2019-06-20 15:33:58 班蚊 30.3 53 957.24 702台南市南區大同路二段752號 (24.70526, 120.22)
臺南 NHRI-IBEN-0012 2019-06-20 15:33:38 班蚊 30.2 54 958.59 702台南市南區大同路二段752號 (24.70526, 120.22)
臺南 NHRI-IBEN-0012 2019-06-20 15:32:49 班蚊 30.1 56.3 983.18 702台南市南區大同路二段752號 (24.70526, 120.22)
高雄 NHRI-IBEN-0005 2019-06-20 14:04:57 班蚊 24.5 89.3 710.39 350 苗栗縣竹南鎮科研路35號 (24.70526, 120.92955)
高雄 NHRI-IBEN-0005 2019-06-20 13:52:11 班蚊 22.8 92 706.21 350 苗栗縣竹南鎮科研路35號 (24.70526, 120.92955)
臺南 NHRI-IBEN-0013 2019-06-19 19:32:29 班蚊 34.2 80.6 1019.83 702台南市南區大同路二段752號 (120.22, 22.965207)
臺南 NHRI-IBEN-0013 2019-06-19 19:15:45 班蚊 0 0 1012.68 702台南市南區大同路二段752號 (120.22, 22.965207)
臺南 NHRI-IBEN-0012 2019-06-19 18:11:29 班蚊 32.8 69.8 565.44 702台南市南區大同路二段752號 (24.70526, 120.22)
臺南 NHRI-IBEN-0012 2019-06-19 18:04:37 班蚊 32.7 67.6 546.27 702台南市南區大同路二段752號 (24.70526, 120.22)
臺南 NHRI-IBEN-0016 2019-06-19 17:37:26 家蚊 32.2 50.2 1750.96 702台南市南區大同路二段752號 (120.22, 22.965207)

 第一頁 / 上一頁 / 下一頁 / 最後一頁 (Total Records:1728 )Download Data / Refresh Page

Type

National Health Research Institutes Institute of Biomedical Engineering and Nanomedicine
Tel:886-37-246166#37125 Fax:886-37-586440
Email: ldliao@nhri.org.tw
ADDRESS: No.35, Keyan Rd., Zhunan Township, Miaoli County 350, Taiwan (R.O.C.)
地址:350 苗栗縣竹南鎮科研路35號